sensor_id;sensor_type;location;lat;lon;timestamp;temperature;humidity
11855;DHT22;5987;53.140;8.904;2024-01-30T00:00:26;5.50;99.90
11855;DHT22;5987;53.140;8.904;2024-01-30T00:03:30;5.40;99.90
11855;DHT22;5987;53.140;8.904;2024-01-30T00:06:34;5.30;99.90
11855;DHT22;5987;53.140;8.904;2024-01-30T00:09:38;5.40;99.90
11855;DHT22;5987;53.140;8.904;2024-01-30T00:12:43;5.50;99.90
11855;DHT22;5987;53.140;8.904;2024-01-30T00:15:47;5.50;99.90
11855;DHT22;5987;53.140;8.904;2024-01-30T00:18:51;5.40;99.90
11855;DHT22;5987;53.140;8.904;2024-01-30T00:21:55;5.30;99.90
11855;DHT22;5987;53.140;8.904;2024-01-30T00:24:59;5.30;99.90
11855;DHT22;5987;53.140;8.904;2024-01-30T00:28:05;5.30;99.90
11855;DHT22;5987;53.140;8.904;2024-01-30T00:31:08;5.20;99.90
11855;DHT22;5987;53.140;8.904;2024-01-30T00:34:14;5.20;99.90
11855;DHT22;5987;53.140;8.904;2024-01-30T00:37:18;5.10;99.90
11855;DHT22;5987;53.140;8.904;2024-01-30T00:40:22;5.10;99.90
11855;DHT22;5987;53.140;8.904;2024-01-30T00:43:28;5.10;99.90
11855;DHT22;5987;53.140;8.904;2024-01-30T00:46:31;5.00;99.90
11855;DHT22;5987;53.140;8.904;2024-01-30T00:49:35;5.20;99.90
11855;DHT22;5987;53.140;8.904;2024-01-30T00:52:39;5.30;99.90
11855;DHT22;5987;53.140;8.904;2024-01-30T00:55:44;5.20;99.90
11855;DHT22;5987;53.140;8.904;2024-01-30T00:58:49;5.10;99.90
11855;DHT22;5987;53.140;8.904;2024-01-30T01:01:52;5.10;99.90
11855;DHT22;5987;53.140;8.904;2024-01-30T01:04:56;5.00;99.90
11855;DHT22;5987;53.140;8.904;2024-01-30T01:08:00;5.20;99.90
11855;DHT22;5987;53.140;8.904;2024-01-30T01:11:03;5.10;99.90
11855;DHT22;5987;53.140;8.904;2024-01-30T01:14:08;5.10;99.90
11855;DHT22;5987;53.140;8.904;2024-01-30T01:17:12;5.10;99.90
11855;DHT22;5987;53.140;8.904;2024-01-30T01:20:16;5.10;99.90
11855;DHT22;5987;53.140;8.904;2024-01-30T01:23:20;5.10;99.90
11855;DHT22;5987;53.140;8.904;2024-01-30T01:26:23;5.10;99.90
11855;DHT22;5987;53.140;8.904;2024-01-30T01:29:29;5.00;99.90
11855;DHT22;5987;53.140;8.904;2024-01-30T01:32:32;5.10;99.90
11855;DHT22;5987;53.140;8.904;2024-01-30T01:35:36;5.10;99.90
11855;DHT22;5987;53.140;8.904;2024-01-30T01:38:40;5.00;99.90
11855;DHT22;5987;53.140;8.904;2024-01-30T01:41:43;5.00;99.90
11855;DHT22;5987;53.140;8.904;2024-01-30T01:44:48;4.90;99.90
11855;DHT22;5987;53.140;8.904;2024-01-30T01:47:52;5.00;99.90
11855;DHT22;5987;53.140;8.904;2024-01-30T01:50:58;5.00;99.90
11855;DHT22;5987;53.140;8.904;2024-01-30T01:54:04;5.00;99.90
11855;DHT22;5987;53.140;8.904;2024-01-30T01:57:08;5.10;99.90
11855;DHT22;5987;53.140;8.904;2024-01-30T02:00:14;5.10;99.90
11855;DHT22;5987;53.140;8.904;2024-01-30T02:03:18;5.20;99.90
11855;DHT22;5987;53.140;8.904;2024-01-30T02:06:24;5.10;99.90
11855;DHT22;5987;53.140;8.904;2024-01-30T02:09:28;5.10;99.90
11855;DHT22;5987;53.140;8.904;2024-01-30T02:12:32;5.10;99.90
11855;DHT22;5987;53.140;8.904;2024-01-30T02:15:37;5.10;99.90
11855;DHT22;5987;53.140;8.904;2024-01-30T02:18:40;5.10;99.90
11855;DHT22;5987;53.140;8.904;2024-01-30T02:21:50;5.10;99.90
11855;DHT22;5987;53.140;8.904;2024-01-30T02:24:53;5.10;99.90
11855;DHT22;5987;53.140;8.904;2024-01-30T02:27:57;5.10;99.90
11855;DHT22;5987;53.140;8.904;2024-01-30T02:31:01;5.10;99.90
11855;DHT22;5987;53.140;8.904;2024-01-30T02:34:04;5.20;99.90
11855;DHT22;5987;53.140;8.904;2024-01-30T02:37:10;5.20;99.90
11855;DHT22;5987;53.140;8.904;2024-01-30T02:40:14;5.10;99.90
11855;DHT22;5987;53.140;8.904;2024-01-30T02:43:18;5.10;99.90
11855;DHT22;5987;53.140;8.904;2024-01-30T02:46:22;5.10;99.90
11855;DHT22;5987;53.140;8.904;2024-01-30T02:49:26;5.10;99.90
11855;DHT22;5987;53.140;8.904;2024-01-30T02:52:31;5.10;99.90
11855;DHT22;5987;53.140;8.904;2024-01-30T02:55:35;5.10;99.90
11855;DHT22;5987;53.140;8.904;2024-01-30T02:58:39;5.10;99.90
11855;DHT22;5987;53.140;8.904;2024-01-30T03:01:43;5.10;99.90
11855;DHT22;5987;53.140;8.904;2024-01-30T03:04:48;5.10;99.90
11855;DHT22;5987;53.140;8.904;2024-01-30T03:07:54;5.20;99.90
11855;DHT22;5987;53.140;8.904;2024-01-30T03:10:57;5.10;99.90
11855;DHT22;5987;53.140;8.904;2024-01-30T03:14:01;5.00;99.90
11855;DHT22;5987;53.140;8.904;2024-01-30T03:17:06;5.00;99.90
11855;DHT22;5987;53.140;8.904;2024-01-30T03:20:10;4.90;99.90
11855;DHT22;5987;53.140;8.904;2024-01-30T03:23:16;4.80;99.90
11855;DHT22;5987;53.140;8.904;2024-01-30T03:26:20;4.70;99.90
11855;DHT22;5987;53.140;8.904;2024-01-30T03:29:23;4.70;99.90
11855;DHT22;5987;53.140;8.904;2024-01-30T03:32:27;4.70;99.90
11855;DHT22;5987;53.140;8.904;2024-01-30T03:35:31;4.70;99.90
11855;DHT22;5987;53.140;8.904;2024-01-30T03:38:36;4.70;99.90
11855;DHT22;5987;53.140;8.904;2024-01-30T03:41:42;4.70;99.90
11855;DHT22;5987;53.140;8.904;2024-01-30T03:44:46;4.70;99.90
11855;DHT22;5987;53.140;8.904;2024-01-30T03:47:50;4.60;99.90
11855;DHT22;5987;53.140;8.904;2024-01-30T03:50:54;4.70;99.90
11855;DHT22;5987;53.140;8.904;2024-01-30T03:53:59;4.60;99.90
11855;DHT22;5987;53.140;8.904;2024-01-30T03:57:03;4.60;99.90
11855;DHT22;5987;53.140;8.904;2024-01-30T04:00:08;4.60;99.90
11855;DHT22;5987;53.140;8.904;2024-01-30T04:03:14;4.70;99.90
11855;DHT22;5987;53.140;8.904;2024-01-30T04:06:18;4.70;99.90
11855;DHT22;5987;53.140;8.904;2024-01-30T04:09:24;4.70;99.90
11855;DHT22;5987;53.140;8.904;2024-01-30T04:12:28;4.70;99.90
11855;DHT22;5987;53.140;8.904;2024-01-30T04:15:32;4.70;99.90
11855;DHT22;5987;53.140;8.904;2024-01-30T04:18:36;4.70;99.90
11855;DHT22;5987;53.140;8.904;2024-01-30T04:21:40;4.60;99.90
11855;DHT22;5987;53.140;8.904;2024-01-30T04:24:45;4.60;99.90
11855;DHT22;5987;53.140;8.904;2024-01-30T04:27:49;4.60;99.90
11855;DHT22;5987;53.140;8.904;2024-01-30T04:30:53;4.60;99.90
11855;DHT22;5987;53.140;8.904;2024-01-30T04:33:56;4.60;99.90
11855;DHT22;5987;53.140;8.904;2024-01-30T04:37:00;4.60;99.90
11855;DHT22;5987;53.140;8.904;2024-01-30T04:40:06;4.60;99.90
11855;DHT22;5987;53.140;8.904;2024-01-30T04:43:12;4.70;99.90
11855;DHT22;5987;53.140;8.904;2024-01-30T04:46:17;4.70;99.90
11855;DHT22;5987;53.140;8.904;2024-01-30T04:49:20;4.70;99.90
11855;DHT22;5987;53.140;8.904;2024-01-30T04:52:24;4.70;99.90
11855;DHT22;5987;53.140;8.904;2024-01-30T04:55:30;4.70;99.90
11855;DHT22;5987;53.140;8.904;2024-01-30T04:58:33;4.80;99.90
11855;DHT22;5987;53.140;8.904;2024-01-30T05:01:37;4.80;99.90
11855;DHT22;5987;53.140;8.904;2024-01-30T05:04:41;4.90;99.90
11855;DHT22;5987;53.140;8.904;2024-01-30T05:07:45;4.90;99.90
11855;DHT22;5987;53.140;8.904;2024-01-30T05:10:50;4.90;99.90
11855;DHT22;5987;53.140;8.904;2024-01-30T05:13:53;4.90;99.90
11855;DHT22;5987;53.140;8.904;2024-01-30T05:16:57;4.80;99.90
11855;DHT22;5987;53.140;8.904;2024-01-30T05:20:01;4.80;99.90
11855;DHT22;5987;53.140;8.904;2024-01-30T05:23:05;4.80;99.90
11855;DHT22;5987;53.140;8.904;2024-01-30T05:26:10;4.80;99.90
11855;DHT22;5987;53.140;8.904;2024-01-30T05:29:14;4.90;99.90
11855;DHT22;5987;53.140;8.904;2024-01-30T05:32:17;4.90;99.90
11855;DHT22;5987;53.140;8.904;2024-01-30T05:35:21;4.80;99.90
11855;DHT22;5987;53.140;8.904;2024-01-30T05:38:25;4.80;99.90
11855;DHT22;5987;53.140;8.904;2024-01-30T05:41:31;4.80;99.90
11855;DHT22;5987;53.140;8.904;2024-01-30T05:44:34;4.80;99.90
11855;DHT22;5987;53.140;8.904;2024-01-30T05:47:39;4.80;99.90
11855;DHT22;5987;53.140;8.904;2024-01-30T05:50:43;4.90;99.90
11855;DHT22;5987;53.140;8.904;2024-01-30T05:53:47;5.00;99.90
11855;DHT22;5987;53.140;8.904;2024-01-30T05:56:52;5.00;99.90
11855;DHT22;5987;53.140;8.904;2024-01-30T05:59:56;5.00;99.90
11855;DHT22;5987;53.140;8.904;2024-01-30T06:03:00;5.00;99.90
11855;DHT22;5987;53.140;8.904;2024-01-30T06:06:04;5.00;99.90
11855;DHT22;5987;53.140;8.904;2024-01-30T06:09:08;5.10;99.90
11855;DHT22;5987;53.140;8.904;2024-01-30T06:12:13;5.10;99.90
11855;DHT22;5987;53.140;8.904;2024-01-30T06:15:17;5.00;99.90
11855;DHT22;5987;53.140;8.904;2024-01-30T06:18:21;5.00;99.90
11855;DHT22;5987;53.140;8.904;2024-01-30T06:21:25;5.00;99.90
11855;DHT22;5987;53.140;8.904;2024-01-30T06:24:29;5.00;99.90
11855;DHT22;5987;53.140;8.904;2024-01-30T06:27:34;5.10;99.90
11855;DHT22;5987;53.140;8.904;2024-01-30T06:30:37;5.10;99.90
11855;DHT22;5987;53.140;8.904;2024-01-30T06:33:41;5.10;99.90
11855;DHT22;5987;53.140;8.904;2024-01-30T06:36:45;5.10;99.90
11855;DHT22;5987;53.140;8.904;2024-01-30T06:39:49;5.10;99.90
11855;DHT22;5987;53.140;8.904;2024-01-30T06:42:54;5.20;99.90
11855;DHT22;5987;53.140;8.904;2024-01-30T06:45:58;5.20;99.90
11855;DHT22;5987;53.140;8.904;2024-01-30T06:49:02;5.30;99.90
11855;DHT22;5987;53.140;8.904;2024-01-30T06:52:06;5.30;99.90
11855;DHT22;5987;53.140;8.904;2024-01-30T06:55:10;5.40;99.90
11855;DHT22;5987;53.140;8.904;2024-01-30T06:58:15;5.40;99.90
11855;DHT22;5987;53.140;8.904;2024-01-30T07:01:19;5.30;99.90
11855;DHT22;5987;53.140;8.904;2024-01-30T07:04:23;5.10;99.90
11855;DHT22;5987;53.140;8.904;2024-01-30T07:07:27;5.00;99.90
11855;DHT22;5987;53.140;8.904;2024-01-30T07:10:31;5.00;99.90
11855;DHT22;5987;53.140;8.904;2024-01-30T07:13:36;5.10;99.90
11855;DHT22;5987;53.140;8.904;2024-01-30T07:16:40;5.10;99.90
11855;DHT22;5987;53.140;8.904;2024-01-30T07:19:43;5.20;99.90
11855;DHT22;5987;53.140;8.904;2024-01-30T07:22:47;5.20;99.90
11855;DHT22;5987;53.140;8.904;2024-01-30T07:25:51;5.20;99.90
11855;DHT22;5987;53.140;8.904;2024-01-30T07:28:56;5.10;99.90
11855;DHT22;5987;53.140;8.904;2024-01-30T07:32:00;5.10;99.90
11855;DHT22;5987;53.140;8.904;2024-01-30T07:35:04;5.10;99.90
11855;DHT22;5987;53.140;8.904;2024-01-30T07:38:10;5.20;99.90
11855;DHT22;5987;53.140;8.904;2024-01-30T07:41:14;4.70;99.90
11855;DHT22;5987;53.140;8.904;2024-01-30T07:44:19;5.20;99.90
11855;DHT22;5987;53.140;8.904;2024-01-30T07:47:23;5.20;99.90
11855;DHT22;5987;53.140;8.904;2024-01-30T07:50:27;5.40;99.90
11855;DHT22;5987;53.140;8.904;2024-01-30T07:53:31;5.50;99.90
11855;DHT22;5987;53.140;8.904;2024-01-30T07:56:35;5.50;99.90
11855;DHT22;5987;53.140;8.904;2024-01-30T07:59:42;5.60;99.90
11855;DHT22;5987;53.140;8.904;2024-01-30T08:02:46;6.20;99.90
11855;DHT22;5987;53.140;8.904;2024-01-30T08:05:50;5.70;99.90
11855;DHT22;5987;53.140;8.904;2024-01-30T08:08:54;5.60;99.90
11855;DHT22;5987;53.140;8.904;2024-01-30T08:11:59;5.70;99.90
11855;DHT22;5987;53.140;8.904;2024-01-30T08:15:05;5.80;99.90
11855;DHT22;5987;53.140;8.904;2024-01-30T08:18:10;5.90;99.90
11855;DHT22;5987;53.140;8.904;2024-01-30T08:21:13;5.90;99.90
11855;DHT22;5987;53.140;8.904;2024-01-30T08:24:17;6.10;99.90
11855;DHT22;5987;53.140;8.904;2024-01-30T08:27:21;6.20;99.90
11855;DHT22;5987;53.140;8.904;2024-01-30T08:30:26;6.30;99.90
11855;DHT22;5987;53.140;8.904;2024-01-30T08:33:29;6.40;99.90
11855;DHT22;5987;53.140;8.904;2024-01-30T08:36:34;6.60;99.90
11855;DHT22;5987;53.140;8.904;2024-01-30T08:39:38;6.70;99.90
11855;DHT22;5987;53.140;8.904;2024-01-30T08:42:41;6.90;99.90
11855;DHT22;5987;53.140;8.904;2024-01-30T08:45:46;7.10;99.90
11855;DHT22;5987;53.140;8.904;2024-01-30T08:48:50;7.10;99.90
11855;DHT22;5987;53.140;8.904;2024-01-30T08:51:54;7.20;99.90
11855;DHT22;5987;53.140;8.904;2024-01-30T08:55:00;7.30;99.90
11855;DHT22;5987;53.140;8.904;2024-01-30T08:58:04;7.20;99.90
11855;DHT22;5987;53.140;8.904;2024-01-30T09:01:09;7.20;99.90
11855;DHT22;5987;53.140;8.904;2024-01-30T09:04:13;7.20;99.90
11855;DHT22;5987;53.140;8.904;2024-01-30T09:07:17;7.20;99.90
11855;DHT22;5987;53.140;8.904;2024-01-30T09:10:21;7.30;99.90
11855;DHT22;5987;53.140;8.904;2024-01-30T09:13:25;7.30;99.90
11855;DHT22;5987;53.140;8.904;2024-01-30T09:16:30;7.30;99.90
11855;DHT22;5987;53.140;8.904;2024-01-30T09:19:34;7.40;99.90
11855;DHT22;5987;53.140;8.904;2024-01-30T09:22:38;7.40;99.90
11855;DHT22;5987;53.140;8.904;2024-01-30T09:25:42;7.50;99.90
11855;DHT22;5987;53.140;8.904;2024-01-30T09:28:45;7.80;99.90
11855;DHT22;5987;53.140;8.904;2024-01-30T09:31:51;8.00;99.90
11855;DHT22;5987;53.140;8.904;2024-01-30T09:34:54;7.80;99.90
11855;DHT22;5987;53.140;8.904;2024-01-30T09:37:58;7.80;99.90
11855;DHT22;5987;53.140;8.904;2024-01-30T09:41:06;7.90;99.90
11855;DHT22;5987;53.140;8.904;2024-01-30T09:44:13;8.10;99.90
11855;DHT22;5987;53.140;8.904;2024-01-30T09:47:21;8.20;99.90
11855;DHT22;5987;53.140;8.904;2024-01-30T09:50:24;8.30;99.90
11855;DHT22;5987;53.140;8.904;2024-01-30T09:53:30;8.40;99.90
11855;DHT22;5987;53.140;8.904;2024-01-30T09:56:34;8.50;99.90
11855;DHT22;5987;53.140;8.904;2024-01-30T09:59:37;8.60;99.90
11855;DHT22;5987;53.140;8.904;2024-01-30T10:02:42;8.70;99.90
11855;DHT22;5987;53.140;8.904;2024-01-30T10:05:51;8.90;99.90
11855;DHT22;5987;53.140;8.904;2024-01-30T10:08:55;8.90;99.90
11855;DHT22;5987;53.140;8.904;2024-01-30T10:11:59;9.00;99.90
11855;DHT22;5987;53.140;8.904;2024-01-30T10:15:06;9.10;99.90
11855;DHT22;5987;53.140;8.904;2024-01-30T10:18:12;9.10;99.90
11855;DHT22;5987;53.140;8.904;2024-01-30T10:21:16;9.20;99.90
11855;DHT22;5987;53.140;8.904;2024-01-30T10:24:24;9.20;99.90
11855;DHT22;5987;53.140;8.904;2024-01-30T10:27:28;9.30;99.90
11855;DHT22;5987;53.140;8.904;2024-01-30T10:30:32;9.40;99.90
11855;DHT22;5987;53.140;8.904;2024-01-30T10:33:37;9.40;99.90
11855;DHT22;5987;53.140;8.904;2024-01-30T10:36:43;9.40;99.90
11855;DHT22;5987;53.140;8.904;2024-01-30T10:39:53;9.50;99.90
11855;DHT22;5987;53.140;8.904;2024-01-30T10:43:00;9.50;99.90
11855;DHT22;5987;53.140;8.904;2024-01-30T10:46:10;9.60;99.90
11855;DHT22;5987;53.140;8.904;2024-01-30T10:49:18;9.70;99.90
11855;DHT22;5987;53.140;8.904;2024-01-30T10:52:25;9.80;99.90
11855;DHT22;5987;53.140;8.904;2024-01-30T10:55:31;9.70;99.90
11855;DHT22;5987;53.140;8.904;2024-01-30T10:58:36;9.90;99.90
11855;DHT22;5987;53.140;8.904;2024-01-30T11:01:40;10.00;99.90
11855;DHT22;5987;53.140;8.904;2024-01-30T11:04:46;10.00;99.90
11855;DHT22;5987;53.140;8.904;2024-01-30T11:07:50;10.10;99.90
11855;DHT22;5987;53.140;8.904;2024-01-30T11:10:55;10.20;99.90
11855;DHT22;5987;53.140;8.904;2024-01-30T11:14:01;10.30;99.90
11855;DHT22;5987;53.140;8.904;2024-01-30T11:17:05;10.40;99.90
11855;DHT22;5987;53.140;8.904;2024-01-30T11:20:14;10.50;99.90
11855;DHT22;5987;53.140;8.904;2024-01-30T11:23:22;10.50;99.90
11855;DHT22;5987;53.140;8.904;2024-01-30T11:26:28;10.60;99.90
11855;DHT22;5987;53.140;8.904;2024-01-30T11:29:35;10.70;99.90
11855;DHT22;5987;53.140;8.904;2024-01-30T11:32:39;10.70;99.90
11855;DHT22;5987;53.140;8.904;2024-01-30T11:35:45;10.70;99.90
11855;DHT22;5987;53.140;8.904;2024-01-30T11:38:49;10.90;99.90
11855;DHT22;5987;53.140;8.904;2024-01-30T11:41:54;10.90;99.90
11855;DHT22;5987;53.140;8.904;2024-01-30T11:45:00;11.00;99.90
11855;DHT22;5987;53.140;8.904;2024-01-30T11:48:05;11.10;99.90
11855;DHT22;5987;53.140;8.904;2024-01-30T11:51:14;11.10;99.90
11855;DHT22;5987;53.140;8.904;2024-01-30T11:54:21;11.20;99.90
11855;DHT22;5987;53.140;8.904;2024-01-30T11:57:26;11.20;99.90
11855;DHT22;5987;53.140;8.904;2024-01-30T12:00:30;11.20;99.90
11855;DHT22;5987;53.140;8.904;2024-01-30T12:03:36;11.20;99.90
11855;DHT22;5987;53.140;8.904;2024-01-30T12:06:41;11.10;99.90
11855;DHT22;5987;53.140;8.904;2024-01-30T12:09:52;11.10;99.90
11855;DHT22;5987;53.140;8.904;2024-01-30T12:12:57;11.00;99.90
11855;DHT22;5987;53.140;8.904;2024-01-30T12:16:02;10.90;99.90
11855;DHT22;5987;53.140;8.904;2024-01-30T12:19:06;11.00;99.90
11855;DHT22;5987;53.140;8.904;2024-01-30T12:22:12;11.00;99.90
11855;DHT22;5987;53.140;8.904;2024-01-30T12:25:17;11.10;99.90
11855;DHT22;5987;53.140;8.904;2024-01-30T12:28:22;11.10;99.90
11855;DHT22;5987;53.140;8.904;2024-01-30T12:31:26;11.10;99.90
11855;DHT22;5987;53.140;8.904;2024-01-30T12:34:30;11.10;99.90
11855;DHT22;5987;53.140;8.904;2024-01-30T12:37:48;11.00;99.90
11855;DHT22;5987;53.140;8.904;2024-01-30T12:40:54;11.20;99.90
11855;DHT22;5987;53.140;8.904;2024-01-30T12:43:58;11.10;99.90
11855;DHT22;5987;53.140;8.904;2024-01-30T12:47:03;11.20;99.90
11855;DHT22;5987;53.140;8.904;2024-01-30T12:50:07;11.30;99.90
11855;DHT22;5987;53.140;8.904;2024-01-30T12:53:13;11.30;99.90
11855;DHT22;5987;53.140;8.904;2024-01-30T12:56:17;11.30;99.90
11855;DHT22;5987;53.140;8.904;2024-01-30T12:59:20;11.30;99.90
11855;DHT22;5987;53.140;8.904;2024-01-30T13:02:25;11.20;99.90
11855;DHT22;5987;53.140;8.904;2024-01-30T13:05:37;11.30;99.90
11855;DHT22;5987;53.140;8.904;2024-01-30T13:08:42;11.30;99.90
11855;DHT22;5987;53.140;8.904;2024-01-30T13:11:46;11.30;99.90
11855;DHT22;5987;53.140;8.904;2024-01-30T13:14:49;11.40;99.90
11855;DHT22;5987;53.140;8.904;2024-01-30T13:17:53;11.30;99.90
11855;DHT22;5987;53.140;8.904;2024-01-30T13:20:57;11.30;99.90
11855;DHT22;5987;53.140;8.904;2024-01-30T13:24:02;11.40;99.90
11855;DHT22;5987;53.140;8.904;2024-01-30T13:27:07;11.40;99.90
11855;DHT22;5987;53.140;8.904;2024-01-30T13:30:11;11.40;99.90
11855;DHT22;5987;53.140;8.904;2024-01-30T13:33:16;11.50;99.90
11855;DHT22;5987;53.140;8.904;2024-01-30T13:36:19;11.50;99.90
11855;DHT22;5987;53.140;8.904;2024-01-30T13:39:25;11.40;99.90
11855;DHT22;5987;53.140;8.904;2024-01-30T13:42:37;11.40;99.90
11855;DHT22;5987;53.140;8.904;2024-01-30T13:45:41;11.30;99.90
11855;DHT22;5987;53.140;8.904;2024-01-30T13:48:45;11.30;99.90
11855;DHT22;5987;53.140;8.904;2024-01-30T13:51:49;11.40;99.90
11855;DHT22;5987;53.140;8.904;2024-01-30T13:54:54;11.40;99.90
11855;DHT22;5987;53.140;8.904;2024-01-30T13:57:58;11.30;99.90
11855;DHT22;5987;53.140;8.904;2024-01-30T14:01:03;11.30;99.90
11855;DHT22;5987;53.140;8.904;2024-01-30T14:04:07;11.30;99.90
11855;DHT22;5987;53.140;8.904;2024-01-30T14:07:14;11.30;99.90
11855;DHT22;5987;53.140;8.904;2024-01-30T14:10:21;11.40;99.90
11855;DHT22;5987;53.140;8.904;2024-01-30T14:13:25;11.40;99.90
11855;DHT22;5987;53.140;8.904;2024-01-30T14:16:29;11.40;99.90
11855;DHT22;5987;53.140;8.904;2024-01-30T14:19:33;11.50;99.90
11855;DHT22;5987;53.140;8.904;2024-01-30T14:22:38;11.50;99.90
11855;DHT22;5987;53.140;8.904;2024-01-30T14:25:44;11.50;99.90
11855;DHT22;5987;53.140;8.904;2024-01-30T14:28:47;11.50;99.90
11855;DHT22;5987;53.140;8.904;2024-01-30T14:31:51;11.60;99.90
11855;DHT22;5987;53.140;8.904;2024-01-30T14:34:57;11.60;99.90
11855;DHT22;5987;53.140;8.904;2024-01-30T14:38:01;11.60;99.90
11855;DHT22;5987;53.140;8.904;2024-01-30T14:41:08;11.60;99.90
11855;DHT22;5987;53.140;8.904;2024-01-30T14:44:12;11.70;99.90
11855;DHT22;5987;53.140;8.904;2024-01-30T14:47:17;11.80;99.90
11855;DHT22;5987;53.140;8.904;2024-01-30T14:50:21;11.80;99.90
11855;DHT22;5987;53.140;8.904;2024-01-30T14:53:25;11.80;99.90
11855;DHT22;5987;53.140;8.904;2024-01-30T14:56:30;11.70;99.90
11855;DHT22;5987;53.140;8.904;2024-01-30T14:59:34;11.60;99.90
11855;DHT22;5987;53.140;8.904;2024-01-30T15:02:38;11.50;99.90
11855;DHT22;5987;53.140;8.904;2024-01-30T15:05:42;11.50;99.90
11855;DHT22;5987;53.140;8.904;2024-01-30T15:08:46;11.50;99.90
11855;DHT22;5987;53.140;8.904;2024-01-30T15:11:51;11.40;99.90
11855;DHT22;5987;53.140;8.904;2024-01-30T15:14:55;11.30;99.90
11855;DHT22;5987;53.140;8.904;2024-01-30T15:17:58;11.20;99.90
11855;DHT22;5987;53.140;8.904;2024-01-30T15:21:03;11.20;99.90
11855;DHT22;5987;53.140;8.904;2024-01-30T15:24:07;11.20;99.90
11855;DHT22;5987;53.140;8.904;2024-01-30T15:27:12;11.30;99.90
11855;DHT22;5987;53.140;8.904;2024-01-30T15:30:16;11.20;99.90
11855;DHT22;5987;53.140;8.904;2024-01-30T15:33:21;11.20;99.90
11855;DHT22;5987;53.140;8.904;2024-01-30T15:36:29;11.20;99.90
11855;DHT22;5987;53.140;8.904;2024-01-30T15:39:33;11.30;99.90
11855;DHT22;5987;53.140;8.904;2024-01-30T15:42:38;11.20;99.90
11855;DHT22;5987;53.140;8.904;2024-01-30T15:45:42;11.20;99.90
11855;DHT22;5987;53.140;8.904;2024-01-30T15:48:46;11.30;99.90
11855;DHT22;5987;53.140;8.904;2024-01-30T15:51:50;11.30;99.90
11855;DHT22;5987;53.140;8.904;2024-01-30T15:54:54;11.20;99.90
11855;DHT22;5987;53.140;8.904;2024-01-30T15:57:59;11.20;99.90
11855;DHT22;5987;53.140;8.904;2024-01-30T16:01:03;11.20;99.90
11855;DHT22;5987;53.140;8.904;2024-01-30T16:04:07;11.20;99.90
11855;DHT22;5987;53.140;8.904;2024-01-30T16:07:11;11.20;99.90
11855;DHT22;5987;53.140;8.904;2024-01-30T16:10:14;11.20;99.90
11855;DHT22;5987;53.140;8.904;2024-01-30T16:13:20;11.20;99.90
11855;DHT22;5987;53.140;8.904;2024-01-30T16:16:24;11.20;99.90
11855;DHT22;5987;53.140;8.904;2024-01-30T16:19:28;11.20;99.90
11855;DHT22;5987;53.140;8.904;2024-01-30T16:22:35;11.20;99.90
11855;DHT22;5987;53.140;8.904;2024-01-30T16:25:39;11.20;99.90
11855;DHT22;5987;53.140;8.904;2024-01-30T16:28:44;11.20;99.90
11855;DHT22;5987;53.140;8.904;2024-01-30T16:31:47;11.20;99.90
11855;DHT22;5987;53.140;8.904;2024-01-30T16:34:51;11.20;99.90
11855;DHT22;5987;53.140;8.904;2024-01-30T16:37:55;11.20;99.90
11855;DHT22;5987;53.140;8.904;2024-01-30T16:40:59;11.30;99.90
11855;DHT22;5987;53.140;8.904;2024-01-30T16:44:04;11.30;99.90
11855;DHT22;5987;53.140;8.904;2024-01-30T16:47:08;11.40;99.90
11855;DHT22;5987;53.140;8.904;2024-01-30T16:50:11;11.40;99.90
11855;DHT22;5987;53.140;8.904;2024-01-30T16:53:16;11.40;99.90
11855;DHT22;5987;53.140;8.904;2024-01-30T16:56:19;11.20;99.90
11855;DHT22;5987;53.140;8.904;2024-01-30T16:59:24;11.20;99.90
11855;DHT22;5987;53.140;8.904;2024-01-30T17:02:28;11.10;99.90
11855;DHT22;5987;53.140;8.904;2024-01-30T17:05:32;11.10;99.90
11855;DHT22;5987;53.140;8.904;2024-01-30T17:08:36;11.10;99.90
11855;DHT22;5987;53.140;8.904;2024-01-30T17:11:39;11.00;99.90
11855;DHT22;5987;53.140;8.904;2024-01-30T17:14:44;11.00;99.90
11855;DHT22;5987;53.140;8.904;2024-01-30T17:17:48;11.00;99.90
11855;DHT22;5987;53.140;8.904;2024-01-30T17:20:53;10.90;99.90
11855;DHT22;5987;53.140;8.904;2024-01-30T17:23:56;10.90;99.90
11855;DHT22;5987;53.140;8.904;2024-01-30T17:27:00;10.80;99.90
11855;DHT22;5987;53.140;8.904;2024-01-30T17:30:07;10.80;99.90
11855;DHT22;5987;53.140;8.904;2024-01-30T17:33:11;10.80;99.90
11855;DHT22;5987;53.140;8.904;2024-01-30T17:36:15;10.70;99.90
11855;DHT22;5987;53.140;8.904;2024-01-30T17:39:18;10.70;99.90
11855;DHT22;5987;53.140;8.904;2024-01-30T17:42:23;10.50;99.90
11855;DHT22;5987;53.140;8.904;2024-01-30T17:45:28;10.50;99.90
11855;DHT22;5987;53.140;8.904;2024-01-30T17:48:32;10.50;99.90
11855;DHT22;5987;53.140;8.904;2024-01-30T17:51:38;10.40;99.90
11855;DHT22;5987;53.140;8.904;2024-01-30T17:54:42;10.40;99.90
11855;DHT22;5987;53.140;8.904;2024-01-30T17:57:46;10.40;99.90
11855;DHT22;5987;53.140;8.904;2024-01-30T18:00:51;10.40;99.90
11855;DHT22;5987;53.140;8.904;2024-01-30T18:03:55;10.40;99.90
11855;DHT22;5987;53.140;8.904;2024-01-30T18:07:00;10.40;99.90
11855;DHT22;5987;53.140;8.904;2024-01-30T18:10:04;10.40;99.90
11855;DHT22;5987;53.140;8.904;2024-01-30T18:13:09;10.40;99.90
11855;DHT22;5987;53.140;8.904;2024-01-30T18:16:17;10.40;99.90
11855;DHT22;5987;53.140;8.904;2024-01-30T18:19:20;10.30;99.90
11855;DHT22;5987;53.140;8.904;2024-01-30T18:22:24;10.30;99.90
11855;DHT22;5987;53.140;8.904;2024-01-30T18:25:28;10.30;99.90
11855;DHT22;5987;53.140;8.904;2024-01-30T18:28:32;10.20;99.90
11855;DHT22;5987;53.140;8.904;2024-01-30T18:31:37;10.20;99.90
11855;DHT22;5987;53.140;8.904;2024-01-30T18:34:44;10.20;99.90
11855;DHT22;5987;53.140;8.904;2024-01-30T18:37:47;10.10;99.90
11855;DHT22;5987;53.140;8.904;2024-01-30T18:40:52;10.20;99.90
11855;DHT22;5987;53.140;8.904;2024-01-30T18:43:55;10.10;99.90
11855;DHT22;5987;53.140;8.904;2024-01-30T18:47:01;10.10;99.90
11855;DHT22;5987;53.140;8.904;2024-01-30T18:50:06;10.10;99.90
11855;DHT22;5987;53.140;8.904;2024-01-30T18:53:11;10.10;99.90
11855;DHT22;5987;53.140;8.904;2024-01-30T18:56:15;10.10;99.90
11855;DHT22;5987;53.140;8.904;2024-01-30T18:59:20;10.10;99.90
11855;DHT22;5987;53.140;8.904;2024-01-30T19:02:25;10.10;99.90
11855;DHT22;5987;53.140;8.904;2024-01-30T19:05:28;10.10;99.90
11855;DHT22;5987;53.140;8.904;2024-01-30T19:08:33;10.00;99.90
11855;DHT22;5987;53.140;8.904;2024-01-30T19:11:36;9.90;99.90
11855;DHT22;5987;53.140;8.904;2024-01-30T19:14:40;9.90;99.90
11855;DHT22;5987;53.140;8.904;2024-01-30T19:17:46;9.80;99.90
11855;DHT22;5987;53.140;8.904;2024-01-30T19:20:49;9.80;99.90
11855;DHT22;5987;53.140;8.904;2024-01-30T19:23:53;9.80;99.90
11855;DHT22;5987;53.140;8.904;2024-01-30T19:27:01;9.80;99.90
11855;DHT22;5987;53.140;8.904;2024-01-30T19:30:07;9.70;99.90
11855;DHT22;5987;53.140;8.904;2024-01-30T19:33:12;9.70;99.90
11855;DHT22;5987;53.140;8.904;2024-01-30T19:36:16;9.70;99.90
11855;DHT22;5987;53.140;8.904;2024-01-30T19:39:20;9.60;99.90
11855;DHT22;5987;53.140;8.904;2024-01-30T19:42:23;9.60;99.90
11855;DHT22;5987;53.140;8.904;2024-01-30T19:45:27;9.50;99.90
11855;DHT22;5987;53.140;8.904;2024-01-30T19:48:33;9.40;99.90
11855;DHT22;5987;53.140;8.904;2024-01-30T19:51:37;9.30;99.90
11855;DHT22;5987;53.140;8.904;2024-01-30T19:54:41;9.30;99.90